Time;durP1;ratioP1;P1;durP2;ratioP2;P2;SDS_P1;SDS_P2;PMS_P1;PMS_P2;Temp;Humidity;BMP_temperature;BMP_pressure;BME280_temperature;BME280_humidity;BME280_pressure;Samples;Min_cycle;Max_cycle;Signal;HPM_P1;HPM_P2
2024/02/08 00:02:23;;;;;;;5.00;2.60;;;2.30;99.90;;;;;;5047955;28;20492;-62
2024/02/08 00:04:51;;;;;;;4.67;2.70;;;2.30;99.90;;;;;;5053933;28;20489;-62
2024/02/08 00:07:19;;;;;;;8.70;3.20;;;2.30;99.90;;;;;;5053135;28;20970;-62
2024/02/08 00:09:50;;;;;;;4.30;2.80;;;2.30;99.90;;;;;;5050900;28;22020;-62
2024/02/08 00:12:19;;;;;;;9.00;3.00;;;2.30;99.90;;;;;;5053975;28;21198;-62
2024/02/08 00:14:47;;;;;;;10.50;4.00;;;2.20;99.90;;;;;;5047858;28;20487;-63
2024/02/08 00:17:16;;;;;;;6.53;2.83;;;2.20;99.90;;;;;;5047374;28;20473;-63
2024/02/08 00:19:44;;;;;;;7.23;3.50;;;2.20;99.90;;;;;;5053966;28;20559;-63
2024/02/08 00:22:12;;;;;;;6.10;3.20;;;2.20;99.90;;;;;;5051651;28;20555;-63
2024/02/08 00:24:42;;;;;;;6.90;2.87;;;2.20;99.90;;;;;;5053963;28;20505;-61
2024/02/08 00:27:11;;;;;;;6.00;3.07;;;2.20;99.90;;;;;;5053336;28;20974;-62
2024/02/08 00:29:42;;;;;;;5.53;2.70;;;2.30;99.90;;;;;;5049653;28;20476;-62
2024/02/08 00:32:11;;;;;;;3.73;2.57;;;2.30;99.90;;;;;;5051854;28;20645;-62
2024/02/08 00:34:40;;;;;;;5.90;2.70;;;2.30;99.90;;;;;;5051081;28;20623;-62
2024/02/08 00:37:08;;;;;;;5.07;2.70;;;2.20;99.90;;;;;;5051719;28;20481;-62
2024/02/08 00:39:42;;;;;;;8.67;3.03;;;2.30;99.90;;;;;;5052761;28;20841;-61
2024/02/08 00:42:12;;;;;;;5.60;2.90;;;2.30;99.90;;;;;;5050086;28;20490;-62
2024/02/08 00:44:41;;;;;;;4.13;2.80;;;2.30;99.90;;;;;;5050034;28;20471;-60
2024/02/08 00:47:09;;;;;;;10.33;3.17;;;2.20;99.90;;;;;;5050991;28;20558;-62
2024/02/08 00:49:39;;;;;;;6.80;3.50;;;2.20;99.90;;;;;;5051462;28;20524;-61
2024/02/08 00:52:08;;;;;;;5.87;2.80;;;2.10;99.90;;;;;;5051870;28;20486;-61
2024/02/08 00:54:36;;;;;;;5.23;3.33;;;2.10;99.90;;;;;;5051557;28;20538;-63
2024/02/08 00:57:07;;;;;;;7.60;3.30;;;2.10;99.90;;;;;;5051651;28;20494;-62
2024/02/08 00:59:37;;;;;;;4.77;2.90;;;2.10;99.90;;;;;;5055329;28;20469;-61
2024/02/08 01:02:06;;;;;;;6.13;3.20;;;2.10;99.90;;;;;;5052253;28;20540;-61
2024/02/08 01:04:35;;;;;;;5.63;3.10;;;2.10;99.90;;;;;;5044593;28;20473;-62
2024/02/08 01:07:04;;;;;;;7.30;3.63;;;2.10;99.90;;;;;;5050102;28;20501;-61
2024/02/08 01:09:32;;;;;;;6.57;2.80;;;2.10;99.90;;;;;;5056545;28;20553;-61
2024/02/08 01:12:01;;;;;;;4.33;3.00;;;2.10;99.90;;;;;;5048620;28;21041;-60
2024/02/08 01:14:30;;;;;;;4.80;4.00;;;2.10;99.90;;;;;;5048744;28;20825;-61
2024/02/08 01:16:59;;;;;;;4.37;3.20;;;2.10;99.90;;;;;;5052423;28;20577;-62
2024/02/08 01:19:27;;;;;;;6.07;3.03;;;2.10;99.90;;;;;;5055178;28;20549;-61
2024/02/08 01:21:56;;;;;;;5.37;3.20;;;2.10;99.90;;;;;;5052722;28;20478;-60
2024/02/08 01:24:24;;;;;;;7.57;3.50;;;2.10;99.90;;;;;;5050728;28;20557;-62
2024/02/08 01:26:53;;;;;;;8.43;3.90;;;2.10;99.90;;;;;;5051851;28;20584;-61
2024/02/08 01:29:24;;;;;;;8.90;3.20;;;2.10;99.90;;;;;;5054365;28;20557;-62
2024/02/08 01:31:52;;;;;;;8.10;3.23;;;2.10;99.90;;;;;;5046158;28;21063;-62
2024/02/08 01:34:23;;;;;;;5.30;3.07;;;2.10;99.90;;;;;;5052882;28;20476;-63
2024/02/08 01:36:53;;;;;;;4.40;2.97;;;2.10;99.90;;;;;;5052895;28;20486;-61
2024/02/08 01:39:23;;;;;;;7.67;3.07;;;2.10;99.90;;;;;;5054959;28;20568;-61
2024/02/08 01:41:52;;;;;;;6.60;3.40;;;2.10;99.90;;;;;;5063571;28;20580;-61
2024/02/08 01:44:21;;;;;;;4.87;3.10;;;2.10;99.90;;;;;;5075530;28;20555;-62
2024/02/08 01:46:50;;;;;;;9.63;4.20;;;2.00;99.90;;;;;;5072020;28;20489;-62
2024/02/08 01:49:23;;;;;;;7.17;3.20;;;2.00;99.90;;;;;;5076221;28;20473;-63
2024/02/08 01:51:59;;;;;;;6.83;3.10;;;2.10;99.90;;;;;;5074389;28;20482;-62
2024/02/08 01:54:29;;;;;;;4.70;2.50;;;2.10;99.90;;;;;;5074860;28;20469;-62
2024/02/08 01:56:59;;;;;;;6.30;3.00;;;2.10;99.90;;;;;;5073223;28;20992;-62
2024/02/08 01:59:29;;;;;;;6.40;3.13;;;2.10;99.90;;;;;;5070427;28;21293;-61
2024/02/08 02:02:01;;;;;;;4.17;2.67;;;2.10;99.90;;;;;;5070064;28;20514;-62
2024/02/08 02:04:31;;;;;;;6.97;2.93;;;2.20;99.90;;;;;;5074273;28;20469;-62
2024/02/08 02:07:02;;;;;;;4.70;2.40;;;2.20;99.90;;;;;;5075062;28;20568;-61
2024/02/08 02:09:31;;;;;;;6.13;2.80;;;2.20;99.90;;;;;;5072194;28;20766;-62
2024/02/08 02:12:04;;;;;;;4.10;2.60;;;2.20;99.90;;;;;;5076330;28;20495;-61
2024/02/08 02:14:35;;;;;;;5.37;3.27;;;2.20;99.90;;;;;;5074815;28;20886;-63
2024/02/08 02:17:11;;;;;;;6.90;2.73;;;2.20;99.90;;;;;;5071238;28;20595;-62
2024/02/08 02:19:40;;;;;;;6.90;3.00;;;2.20;99.90;;;;;;5067775;28;20468;-62
2024/02/08 02:22:11;;;;;;;5.87;2.87;;;2.20;99.90;;;;;;5076242;28;20489;-62
2024/02/08 02:24:41;;;;;;;7.97;3.20;;;2.20;99.90;;;;;;5077087;28;20464;-62
2024/02/08 02:27:10;;;;;;;8.03;3.27;;;2.20;99.90;;;;;;5076823;28;20548;-61
2024/02/08 02:29:40;;;;;;;4.90;3.10;;;2.30;99.90;;;;;;5077500;28;20978;-62
2024/02/08 02:32:12;;;;;;;4.53;2.80;;;2.30;99.90;;;;;;5077215;28;21033;-62
2024/02/08 02:34:43;;;;;;;5.93;2.87;;;2.30;99.90;;;;;;5072621;28;20617;-62
2024/02/08 02:37:13;;;;;;;8.77;3.30;;;2.30;99.90;;;;;;5069578;28;20583;-61
2024/02/08 02:39:41;;;;;;;5.77;3.07;;;2.30;99.90;;;;;;5073901;28;20503;-62
2024/02/08 02:42:08;;;;;;;6.33;3.10;;;2.30;99.90;;;;;;5077243;28;20764;-62
2024/02/08 02:44:37;;;;;;;6.33;3.07;;;2.30;99.90;;;;;;5076647;28;20899;-61
2024/02/08 02:47:05;;;;;;;6.47;3.20;;;2.30;99.90;;;;;;5076479;28;21028;-62
2024/02/08 02:49:36;;;;;;;8.27;3.70;;;2.30;99.90;;;;;;5070963;28;20527;-61
2024/02/08 02:52:07;;;;;;;4.60;3.17;;;2.30;99.90;;;;;;5076682;28;20489;-62
2024/02/08 02:54:39;;;;;;;8.10;3.70;;;2.30;99.90;;;;;;5077789;28;20472;-62
2024/02/08 02:57:08;;;;;;;5.57;3.57;;;2.30;99.90;;;;;;5077602;28;20614;-62
2024/02/08 02:59:37;;;;;;;6.57;3.13;;;2.30;99.90;;;;;;5076988;28;20832;-61
2024/02/08 03:02:08;;;;;;;5.10;3.50;;;2.30;99.90;;;;;;5074901;28;20507;-60
2024/02/08 03:04:36;;;;;;;7.63;3.40;;;2.30;99.90;;;;;;5070798;28;20961;-61
2024/02/08 03:07:04;;;;;;;7.83;3.43;;;2.30;99.90;;;;;;5074634;28;20619;-61
2024/02/08 03:09:32;;;;;;;8.93;4.07;;;2.30;99.90;;;;;;5076467;28;20996;-61
2024/02/08 03:12:01;;;;;;;7.97;3.50;;;2.30;99.90;;;;;;5073894;28;20584;-62
2024/02/08 03:14:29;;;;;;;7.03;3.93;;;2.30;99.90;;;;;;5077359;28;20838;-61
2024/02/08 03:17:02;;;;;;;9.17;4.50;;;2.30;99.90;;;;;;5073510;28;20588;-60
2024/02/08 03:19:35;;;;;;;6.60;3.87;;;2.40;99.90;;;;;;5072723;28;20464;-61
2024/02/08 03:22:07;;;;;;;6.93;4.00;;;2.40;99.90;;;;;;5073827;28;20584;-61
2024/02/08 03:24:35;;;;;;;7.73;3.83;;;2.40;99.90;;;;;;5074893;28;20478;-61
2024/02/08 03:27:07;;;;;;;7.27;4.10;;;2.40;99.90;;;;;;5075854;28;20489;-61
2024/02/08 03:29:35;;;;;;;4.77;3.67;;;2.40;99.90;;;;;;5075296;28;20592;-61
2024/02/08 03:32:04;;;;;;;6.97;3.50;;;2.40;99.90;;;;;;5071677;28;21108;-61
2024/02/08 03:34:35;;;;;;;5.37;3.67;;;2.40;99.90;;;;;;5071197;28;20564;-62
2024/02/08 03:37:06;;;;;;;7.90;3.53;;;2.40;99.90;;;;;;5074241;28;20866;-62
2024/02/08 03:39:35;;;;;;;11.63;4.60;;;2.40;99.90;;;;;;5077080;28;20465;-62
2024/02/08 03:42:05;;;;;;;5.17;3.50;;;2.40;99.90;;;;;;5075040;28;20507;-60
2024/02/08 03:44:34;;;;;;;7.70;3.97;;;2.40;99.90;;;;;;5076218;28;20853;-62
2024/02/08 03:47:04;;;;;;;9.90;4.27;;;2.40;99.90;;;;;;5079083;28;20714;-62
2024/02/08 03:49:33;;;;;;;8.27;3.90;;;2.40;99.90;;;;;;5072931;28;20564;-62
2024/02/08 03:52:01;;;;;;;8.70;3.90;;;2.40;99.90;;;;;;5071229;28;20516;-61
2024/02/08 03:54:30;;;;;;;6.20;4.30;;;2.30;99.90;;;;;;5076536;28;21027;-62
2024/02/08 03:57:04;;;;;;;7.40;4.50;;;2.30;99.90;;;;;;5077460;28;21017;-61
2024/02/08 03:59:40;;;;;;;8.70;4.27;;;2.30;99.90;;;;;;5079232;28;20472;-61
2024/02/08 04:02:09;;;;;;;8.50;4.93;;;2.30;99.90;;;;;;5075407;28;20484;-61
2024/02/08 04:04:53;;;;;;;7.43;3.90;;;2.30;99.90;;;;;;5072401;28;20666;-62
2024/02/08 04:07:22;;;;;;;6.43;3.90;;;2.30;99.90;;;;;;5075725;28;20472;-61
2024/02/08 04:09:56;;;;;;;5.80;4.33;;;2.30;99.90;;;;;;5077523;28;20534;-61
2024/02/08 04:54:16;;;;;;;6.17;4.03;;;2.30;99.90;;;;;;5051802;28;20575;-62
2024/02/08 04:56:46;;;;;;;6.57;4.43;;;2.30;99.90;;;;;;5054165;28;20585;-62
2024/02/08 04:59:14;;;;;;;5.40;3.93;;;2.30;99.90;;;;;;5054983;28;20466;-62
2024/02/08 05:01:53;;;;;;;9.53;4.60;;;2.30;99.90;;;;;;5054794;28;20484;-61
2024/02/08 05:04:23;;;;;;;8.47;4.50;;;2.30;99.90;;;;;;5054133;28;20469;-62
2024/02/08 05:06:55;;;;;;;9.30;5.13;;;2.30;99.90;;;;;;5054258;28;21197;-61
2024/02/08 05:09:24;;;;;;;7.90;4.27;;;2.30;99.90;;;;;;5047293;28;20477;-60
2024/02/08 05:11:52;;;;;;;8.13;4.40;;;2.30;99.90;;;;;;5052013;28;20481;-61
2024/02/08 05:14:22;;;;;;;8.90;5.00;;;2.30;99.90;;;;;;5056200;28;20479;-62
2024/02/08 05:16:54;;;;;;;5.40;4.17;;;2.30;99.90;;;;;;5050405;28;20844;-62
2024/02/08 05:19:25;;;;;;;6.30;4.30;;;2.30;99.90;;;;;;5052206;28;20474;-62
2024/02/08 05:21:58;;;;;;;8.37;4.47;;;2.30;99.90;;;;;;5054593;28;20490;-61
2024/02/08 05:24:27;;;;;;;7.37;4.67;;;2.40;99.90;;;;;;5056175;28;20470;-61
2024/02/08 05:26:56;;;;;;;8.83;4.30;;;2.40;99.90;;;;;;5049083;28;20566;-61
2024/02/08 05:29:24;;;;;;;8.60;4.57;;;2.30;99.90;;;;;;5053852;28;20472;-61
2024/02/08 05:31:52;;;;;;;6.30;4.67;;;2.30;99.90;;;;;;5048755;28;20490;-63
2024/02/08 05:34:21;;;;;;;8.83;4.50;;;2.40;99.90;;;;;;5047727;28;20481;-62
2024/02/08 05:36:52;;;;;;;11.80;4.60;;;2.40;99.90;;;;;;5051907;28;20488;-62
2024/02/08 05:39:23;;;;;;;7.33;4.73;;;2.40;99.90;;;;;;5052492;28;20470;-62
2024/02/08 05:41:55;;;;;;;11.70;5.80;;;2.30;99.90;;;;;;5055788;28;20466;-63
2024/02/08 05:44:29;;;;;;;9.40;5.13;;;2.30;99.90;;;;;;5053086;28;20471;-61
2024/02/08 05:47:07;;;;;;;7.90;4.53;;;2.30;99.90;;;;;;5051946;28;20520;-62
2024/02/08 05:49:38;;;;;;;7.50;4.47;;;2.30;99.90;;;;;;5052075;28;20481;-63
2024/02/08 05:52:08;;;;;;;7.07;4.80;;;2.30;99.90;;;;;;5048792;28;20532;-63
2024/02/08 05:54:40;;;;;;;5.73;4.60;;;2.40;99.90;;;;;;5050434;28;20467;-62
2024/02/08 05:57:10;;;;;;;10.00;4.90;;;2.40;99.90;;;;;;5050031;28;21242;-62
2024/02/08 05:59:39;;;;;;;9.50;4.80;;;2.40;99.90;;;;;;5051455;28;20468;-62
2024/02/08 06:02:14;;;;;;;7.13;5.13;;;2.40;99.90;;;;;;5051057;28;20521;-62
2024/02/08 06:04:50;;;;;;;6.97;5.10;;;2.40;99.90;;;;;;5055816;28;20469;-62
2024/02/08 06:07:21;;;;;;;6.60;4.80;;;2.40;99.90;;;;;;5038652;28;20802;-60
2024/02/08 06:10:07;;;;;;;5.93;4.67;;;2.40;99.90;;;;;;5052580;28;20469;-60
2024/02/08 06:12:42;;;;;;;8.90;5.50;;;2.30;99.90;;;;;;5050225;28;20485;-62
2024/02/08 06:15:21;;;;;;;7.00;4.63;;;2.30;99.90;;;;;;5054043;28;20507;-61
2024/02/08 06:17:57;;;;;;;11.47;5.20;;;2.30;99.90;;;;;;5056497;28;20496;-61
2024/02/08 06:20:33;;;;;;;6.67;5.07;;;2.30;99.90;;;;;;5054309;28;20526;-62
2024/02/08 06:23:15;;;;;;;10.20;5.00;;;2.30;99.90;;;;;;5051763;28;21223;-61
2024/02/08 06:25:45;;;;;;;9.80;4.87;;;2.30;99.90;;;;;;5054133;28;21121;-61
2024/02/08 06:28:13;;;;;;;10.43;6.27;;;2.40;99.90;;;;;;5054883;28;20509;-61
2024/02/08 06:30:46;;;;;;;8.53;5.80;;;2.40;99.90;;;;;;5056098;28;20524;-61
2024/02/08 06:33:25;;;;;;;10.30;4.87;;;2.40;99.90;;;;;;5049004;28;20469;-61
2024/02/08 06:35:56;;;;;;;7.77;4.73;;;2.40;99.90;;;;;;5054233;28;20497;-61
2024/02/08 06:38:40;;;;;;;6.63;5.37;;;2.40;99.90;;;;;;5037033;28;20497;-61
2024/02/08 06:41:23;;;;;;;8.63;4.97;;;2.40;99.90;;;;;;5052766;28;20573;-60
2024/02/08 06:43:57;;;;;;;7.37;5.53;;;2.40;99.90;;;;;;5051300;28;20457;-61
2024/02/08 06:46:48;;;;;;;7.43;5.00;;;2.40;99.90;;;;;;5037060;28;20494;-62
2024/02/08 07:39:34;;;;;;;9.73;6.83;;;2.50;99.90;;;;;;5054486;28;20493;-62
2024/02/08 07:42:12;;;;;;;9.93;5.30;;;2.50;99.90;;;;;;5051323;28;20485;-61
2024/02/08 07:44:45;;;;;;;8.10;5.97;;;2.60;99.90;;;;;;5053555;28;20481;-61
2024/02/08 07:47:13;;;;;;;8.83;5.73;;;2.60;99.90;;;;;;5047406;28;20909;-60
2024/02/08 07:49:44;;;;;;;9.77;5.57;;;2.60;99.90;;;;;;5050915;28;20462;-60
2024/02/08 07:52:19;;;;;;;13.00;6.20;;;2.60;99.90;;;;;;5053832;28;20494;-62
2024/02/08 07:54:50;;;;;;;8.83;5.87;;;2.60;99.90;;;;;;5054676;28;20478;-62
2024/02/08 07:57:24;;;;;;;8.17;5.70;;;2.60;99.90;;;;;;5053800;28;20928;-61
2024/02/08 07:59:59;;;;;;;9.77;5.40;;;2.70;99.90;;;;;;5051761;28;20496;-61
2024/02/08 08:02:29;;;;;;;14.40;5.63;;;2.70;99.90;;;;;;5051235;28;20481;-60
2024/02/08 08:04:57;;;;;;;9.13;5.40;;;2.70;99.90;;;;;;5053170;28;21028;-61
2024/02/08 08:07:26;;;;;;;10.53;5.90;;;2.70;99.90;;;;;;5053723;28;20482;-61
2024/02/08 08:10:07;;;;;;;8.03;5.20;;;2.70;99.90;;;;;;5051517;28;20889;-61
2024/02/08 08:12:36;;;;;;;9.67;6.00;;;2.80;99.90;;;;;;5051856;28;20580;-62
2024/02/08 08:15:13;;;;;;;9.17;5.10;;;2.80;99.90;;;;;;5054254;28;20588;-61
2024/02/08 08:17:42;;;;;;;6.90;5.60;;;2.80;99.90;;;;;;5052991;28;20854;-61
2024/02/08 08:20:56;;;;;;;9.23;5.27;;;2.80;99.90;;;;;;5051475;28;20493;-60
2024/02/08 08:23:07;;;;;;;6.77;5.00;;;2.80;99.90;;;;;;5051732;28;20516;-61
2024/02/08 08:28:52;;;;;;;8.63;6.00;;;2.90;99.90;;;;;;5062831;27;20566;-62
2024/02/08 08:31:37;;;;;;;9.23;5.80;;;2.90;99.90;;;;;;5052144;28;20566;-62
2024/02/08 08:36:58;;;;;;;9.33;5.30;;;2.90;99.90;;;;;;5033235;28;21019;-62
2024/02/08 08:39:46;;;;;;;8.60;5.50;;;2.90;99.90;;;;;;5030918;28;20511;-62
2024/02/08 08:42:17;;;;;;;9.47;5.73;;;2.90;99.90;;;;;;5030843;28;20475;-63
2024/02/08 08:44:56;;;;;;;9.50;5.43;;;3.00;99.90;;;;;;5030842;28;20981;-62
2024/02/08 08:47:27;;;;;;;11.23;5.30;;;2.90;99.90;;;;;;5030451;28;20462;-63
2024/02/08 08:49:56;;;;;;;11.27;5.63;;;3.00;99.90;;;;;;5026873;28;20501;-63
2024/02/08 08:52:24;;;;;;;6.77;5.10;;;3.00;99.90;;;;;;5029710;28;21004;-63
2024/02/08 08:55:10;;;;;;;11.70;5.33;;;3.00;99.90;;;;;;5031859;28;20472;-63
2024/02/08 08:57:39;;;;;;;8.13;5.50;;;3.00;99.90;;;;;;5025871;28;20792;-63
2024/02/08 09:00:18;;;;;;;10.60;5.77;;;3.00;99.90;;;;;;5028027;28;21300;-62
2024/02/08 09:02:50;;;;;;;8.57;5.63;;;3.00;99.90;;;;;;5030984;28;20850;-63
2024/02/08 09:05:30;;;;;;;7.77;6.07;;;3.10;99.90;;;;;;5033002;28;21225;-63
2024/02/08 09:07:59;;;;;;;8.90;5.50;;;3.10;99.90;;;;;;5031912;28;20471;-63
2024/02/08 09:10:34;;;;;;;10.07;5.60;;;3.10;99.90;;;;;;5030581;28;20477;-63
2024/02/08 09:13:06;;;;;;;11.10;5.60;;;3.20;99.90;;;;;;5031768;28;20856;-63
2024/02/08 09:15:48;;;;;;;9.63;6.17;;;3.20;99.90;;;;;;5029771;28;20537;-63
2024/02/08 09:18:16;;;;;;;13.50;6.17;;;3.20;99.90;;;;;;5030314;28;20557;-63
2024/02/08 09:20:44;;;;;;;9.10;6.03;;;3.20;99.90;;;;;;5030732;28;20482;-62
2024/02/08 09:23:17;;;;;;;10.40;6.10;;;3.20;99.90;;;;;;5031001;28;21453;-63
2024/02/08 09:25:45;;;;;;;8.63;6.30;;;3.20;99.90;;;;;;5026655;28;20523;-63
2024/02/08 09:28:26;;;;;;;9.57;5.80;;;3.20;99.90;;;;;;5027035;28;20470;-63
2024/02/08 09:30:57;;;;;;;9.63;5.77;;;3.20;99.90;;;;;;5026528;28;20489;-62
2024/02/08 09:33:44;;;;;;;7.63;6.40;;;3.20;99.90;;;;;;5030828;28;20991;-62
2024/02/08 09:36:14;;;;;;;7.80;5.43;;;3.30;99.90;;;;;;5030030;28;20498;-63
2024/02/08 09:38:50;;;;;;;11.80;6.70;;;3.30;99.90;;;;;;5024220;28;20503;-63
2024/02/08 09:41:23;;;;;;;6.80;6.10;;;3.30;99.90;;;;;;5018668;28;20486;-63
2024/02/08 09:43:56;;;;;;;9.67;7.43;;;3.40;99.90;;;;;;5016548;28;20479;-63
2024/02/08 09:49:17;;;;;;;11.53;7.00;;;3.40;99.90;;;;;;5014040;28;20996;-63
2024/02/08 09:51:53;;;;;;;8.63;6.90;;;3.50;99.90;;;;;;5013175;28;20491;-64
2024/02/08 09:54:28;;;;;;;10.90;6.30;;;3.50;99.90;;;;;;5016099;28;20479;-62
2024/02/08 09:57:02;;;;;;;10.57;6.60;;;3.50;99.90;;;;;;5011487;28;20496;-62
2024/02/08 09:59:59;;;;;;;12.87;6.10;;;3.60;99.90;;;;;;5010948;28;20481;-62
2024/02/08 10:02:37;;;;;;;15.57;6.23;;;3.60;99.90;;;;;;5014988;28;20931;-62
2024/02/08 10:05:48;;;;;;;9.10;6.10;;;3.70;99.90;;;;;;5012226;28;20490;-62
2024/02/08 10:08:11;;;;;;;10.70;5.73;;;3.70;99.90;;;;;;5017314;28;20541;-61
2024/02/08 10:10:56;;;;;;;9.57;6.27;;;3.80;99.90;;;;;;5017179;28;20564;-62
2024/02/08 10:13:51;;;;;;;10.37;5.40;;;3.80;99.90;;;;;;5016202;28;20467;-62
2024/02/08 10:16:29;;;;;;;8.80;6.60;;;3.80;99.90;;;;;;5014781;28;20496;-62
2024/02/08 10:19:02;;;;;;;12.43;6.00;;;3.90;99.90;;;;;;5017753;28;20479;-63
2024/02/08 10:21:35;;;;;;;13.60;7.00;;;3.90;99.90;;;;;;5016417;28;20565;-63
2024/02/08 10:24:13;;;;;;;9.37;6.13;;;3.90;99.90;;;;;;5014709;28;20483;-63
2024/02/08 10:26:45;;;;;;;8.00;5.93;;;3.90;99.90;;;;;;5015320;28;21016;-62
2024/02/08 10:29:15;;;;;;;11.33;5.57;;;3.90;99.90;;;;;;5013877;28;20474;-63
2024/02/08 10:31:47;;;;;;;10.90;5.70;;;3.90;99.90;;;;;;5012950;28;20844;-61
2024/02/08 10:34:33;;;;;;;7.40;5.10;;;4.00;99.90;;;;;;5013368;28;20934;-61
2024/02/08 10:37:04;;;;;;;6.30;5.57;;;4.00;99.90;;;;;;5007044;28;20591;-62
2024/02/08 10:39:32;;;;;;;11.13;5.77;;;4.10;99.90;;;;;;5010966;28;20932;-62
2024/02/08 10:42:02;;;;;;;7.60;5.60;;;4.10;99.90;;;;;;5015483;28;20484;-61
2024/02/08 10:44:32;;;;;;;11.00;6.13;;;4.10;99.90;;;;;;5017177;28;20476;-61
2024/02/08 10:47:09;;;;;;;10.50;5.43;;;4.20;99.90;;;;;;5013668;28;20648;-62
2024/02/08 10:49:44;;;;;;;7.23;6.07;;;4.20;99.90;;;;;;5013795;28;20464;-62
2024/02/08 10:52:16;;;;;;;10.10;7.67;;;4.30;99.90;;;;;;5016182;28;20583;-62
2024/02/08 10:54:51;;;;;;;7.80;5.97;;;4.30;99.90;;;;;;5013104;28;20475;-61
2024/02/08 10:57:57;;;;;;;7.80;5.53;;;4.30;99.90;;;;;;5014367;28;20475;-62
2024/02/08 11:03:14;;;;;;;6.10;4.70;;;4.40;99.90;;;;;;4987564;28;20519;-62
2024/02/08 11:05:47;;;;;;;9.93;5.70;;;4.40;99.90;;;;;;5012414;28;20499;-62
2024/02/08 11:08:24;;;;;;;12.77;6.60;;;4.40;99.90;;;;;;5013470;28;20479;-62
2024/02/08 11:10:58;;;;;;;8.90;6.10;;;4.50;99.90;;;;;;5008165;28;20799;-61
2024/02/08 11:13:30;;;;;;;9.80;6.70;;;4.60;99.90;;;;;;5012899;28;20550;-61
2024/02/08 11:16:19;;;;;;;7.63;6.00;;;4.60;99.90;;;;;;5012395;28;20633;-61
2024/02/08 11:18:51;;;;;;;10.60;5.97;;;4.60;99.90;;;;;;5007967;28;20495;-61
2024/02/08 11:21:42;;;;;;;8.33;5.97;;;4.70;99.90;;;;;;5007463;28;20491;-61
2024/02/08 11:24:13;;;;;;;9.00;5.50;;;4.70;99.90;;;;;;5014303;28;20464;-62
2024/02/08 11:26:54;;;;;;;6.23;5.63;;;4.70;99.90;;;;;;5014828;28;20588;-60
2024/02/08 11:29:24;;;;;;;11.20;6.07;;;4.70;99.90;;;;;;5009827;28;20916;-61
2024/02/08 11:31:55;;;;;;;9.30;5.90;;;4.70;99.90;;;;;;5005787;28;20525;-61
2024/02/08 11:34:27;;;;;;;9.13;5.00;;;4.80;99.90;;;;;;5011467;28;20965;-61
2024/02/08 11:36:58;;;;;;;7.60;5.20;;;4.70;99.90;;;;;;5016491;28;20498;-61
2024/02/08 11:39:27;;;;;;;8.53;6.00;;;4.70;99.90;;;;;;5015571;28;20495;-61
2024/02/08 11:42:00;;;;;;;8.83;5.13;;;4.70;99.90;;;;;;5009522;28;20484;-61
2024/02/08 11:44:35;;;;;;;9.00;5.50;;;4.80;99.90;;;;;;5003021;28;20467;-61
2024/02/08 11:47:17;;;;;;;9.10;5.00;;;4.80;99.90;;;;;;5010539;28;20487;-61
2024/02/08 11:50:00;;;;;;;11.50;5.80;;;4.80;99.90;;;;;;5007609;28;20467;-61
2024/02/08 11:52:31;;;;;;;9.83;5.23;;;4.80;99.90;;;;;;5010276;28;20886;-61
2024/02/08 11:55:03;;;;;;;7.50;4.73;;;4.80;99.90;;;;;;5011156;28;20480;-61
2024/02/08 11:57:36;;;;;;;8.93;5.37;;;4.80;99.90;;;;;;5008041;28;20554;-60
2024/02/08 12:00:15;;;;;;;12.03;5.63;;;4.80;99.90;;;;;;5008238;28;20491;-60
2024/02/08 12:02:47;;;;;;;8.80;5.00;;;4.90;99.90;;;;;;5010020;28;20529;-60
2024/02/08 12:05:19;;;;;;;10.83;4.00;;;4.90;99.90;;;;;;5012897;28;20961;-61
2024/02/08 12:07:48;;;;;;;8.80;4.53;;;4.90;99.90;;;;;;5013405;28;20476;-60
2024/02/08 12:10:17;;;;;;;7.00;4.57;;;4.90;99.90;;;;;;5012877;28;20498;-61
2024/02/08 12:12:46;;;;;;;6.33;4.23;;;4.90;99.90;;;;;;5014584;28;20488;-61
2024/02/08 12:15:14;;;;;;;9.40;4.00;;;4.90;99.90;;;;;;5012220;28;20536;-62
2024/02/08 12:17:48;;;;;;;8.13;4.43;;;5.00;99.90;;;;;;5011891;28;20496;-61
2024/02/08 12:20:17;;;;;;;11.17;4.83;;;5.00;99.90;;;;;;5013962;28;20510;-61
2024/02/08 12:22:55;;;;;;;6.80;3.20;;;5.10;99.90;;;;;;5011112;28;20587;-61
2024/02/08 12:25:27;;;;;;;5.30;2.33;;;5.10;99.90;;;;;;5011159;28;20495;-61
2024/02/08 12:28:00;;;;;;;5.63;2.70;;;5.10;99.90;;;;;;5011082;28;20483;-61
2024/02/08 12:30:32;;;;;;;7.83;3.17;;;5.10;99.90;;;;;;5011885;28;20476;-60
2024/02/08 12:33:07;;;;;;;6.17;2.70;;;5.10;99.90;;;;;;5011629;28;20480;-61
2024/02/08 12:35:40;;;;;;;6.00;2.60;;;5.10;99.90;;;;;;5008537;28;20570;-61
2024/02/08 12:38:12;;;;;;;5.63;3.30;;;5.20;99.90;;;;;;5008689;28;20577;-62
2024/02/08 12:40:40;;;;;;;7.10;4.20;;;5.20;99.90;;;;;;5012314;28;20503;-60
2024/02/08 12:43:09;;;;;;;7.40;4.57;;;5.40;99.90;;;;;;5010138;28;20526;-61
2024/02/08 12:45:38;;;;;;;9.77;5.03;;;5.50;99.90;;;;;;5013368;28;20495;-61
2024/02/08 12:48:08;;;;;;;7.73;4.93;;;5.50;99.90;;;;;;5011476;28;20566;-62
2024/02/08 12:50:37;;;;;;;7.60;4.27;;;5.50;99.90;;;;;;5008631;28;20574;-62
2024/02/08 12:53:06;;;;;;;7.33;4.87;;;5.40;99.90;;;;;;5013332;28;20982;-62
2024/02/08 12:55:36;;;;;;;7.27;4.43;;;5.40;99.90;;;;;;5009162;28;20523;-61
2024/02/08 12:58:04;;;;;;;6.97;4.63;;;5.40;99.90;;;;;;5009182;28;20475;-61
2024/02/08 13:00:34;;;;;;;6.33;4.77;;;5.40;99.90;;;;;;5008139;28;20654;-61
2024/02/08 13:03:06;;;;;;;6.73;4.50;;;5.40;99.90;;;;;;5010431;28;20533;-60
2024/02/08 13:05:39;;;;;;;7.07;5.27;;;5.30;99.90;;;;;;5005616;28;20575;-61
2024/02/08 13:08:09;;;;;;;13.07;5.90;;;5.30;99.90;;;;;;5010839;28;20494;-61
2024/02/08 13:10:39;;;;;;;5.63;5.00;;;5.30;99.90;;;;;;5005165;28;20872;-61
2024/02/08 13:13:10;;;;;;;7.07;5.70;;;5.30;99.90;;;;;;5010233;28;20478;-61
2024/02/08 13:15:41;;;;;;;9.37;5.80;;;5.30;99.90;;;;;;5015300;28;20502;-61
2024/02/08 13:18:13;;;;;;;13.93;8.50;;;5.30;99.90;;;;;;5016805;28;20506;-60
2024/02/08 13:20:41;;;;;;;12.03;6.87;;;5.30;99.90;;;;;;5016380;28;20495;-61
2024/02/08 13:23:12;;;;;;;10.90;7.20;;;5.30;99.90;;;;;;5020252;28;20550;-62
2024/02/08 13:25:42;;;;;;;8.67;6.07;;;5.30;99.90;;;;;;5017457;28;21314;-61
2024/02/08 13:28:11;;;;;;;7.63;5.93;;;5.30;99.90;;;;;;5013915;28;20482;-61
2024/02/08 13:30:41;;;;;;;5.53;5.00;;;5.30;99.90;;;;;;5015791;28;20563;-61
2024/02/08 13:33:10;;;;;;;7.53;5.30;;;5.30;99.90;;;;;;5016462;28;20613;-61
2024/02/08 13:35:41;;;;;;;9.87;5.00;;;5.30;99.90;;;;;;5012558;28;21067;-61
2024/02/08 13:38:11;;;;;;;7.90;4.43;;;5.30;99.90;;;;;;5014882;28;20483;-61
2024/02/08 13:40:44;;;;;;;6.00;3.87;;;5.30;99.90;;;;;;5019429;28;20491;-62
2024/02/08 13:43:13;;;;;;;6.40;3.00;;;5.30;99.90;;;;;;5014821;28;20533;-61
2024/02/08 13:45:42;;;;;;;5.23;3.50;;;5.30;99.90;;;;;;5015757;28;20585;-61
2024/02/08 13:48:15;;;;;;;4.87;3.00;;;5.30;99.90;;;;;;5016211;28;20468;-61
2024/02/08 13:50:44;;;;;;;4.03;3.60;;;5.30;99.90;;;;;;5015787;28;20471;-61
2024/02/08 13:53:14;;;;;;;5.50;3.07;;;5.30;99.90;;;;;;5016346;28;20885;-61
2024/02/08 13:55:45;;;;;;;7.60;2.53;;;5.30;99.90;;;;;;5010287;28;20522;-62
2024/02/08 13:58:24;;;;;;;7.30;3.67;;;5.30;99.90;;;;;;5014510;28;20478;-60
2024/02/08 14:00:54;;;;;;;3.70;2.67;;;5.20;99.90;;;;;;5010651;28;20495;-61
2024/02/08 14:03:23;;;;;;;3.43;2.27;;;5.20;99.90;;;;;;5013733;28;21057;-61
2024/02/08 14:05:55;;;;;;;6.73;3.77;;;5.20;99.90;;;;;;5013282;28;20586;-61
2024/02/08 14:08:27;;;;;;;5.00;3.50;;;5.20;99.90;;;;;;5012373;28;20511;-60
2024/02/08 14:10:59;;;;;;;5.10;2.90;;;5.20;99.90;;;;;;5010886;28;21008;-61
2024/02/08 14:13:34;;;;;;;5.97;2.73;;;5.20;99.90;;;;;;5015350;28;20478;-61
2024/02/08 14:16:13;;;;;;;6.13;2.43;;;5.20;99.90;;;;;;5016302;28;20495;-61
2024/02/08 14:18:48;;;;;;;6.10;2.80;;;5.20;99.90;;;;;;5016695;28;20472;-61
2024/02/08 14:21:20;;;;;;;5.20;2.83;;;5.20;99.90;;;;;;5010436;28;20582;-62
2024/02/08 14:23:50;;;;;;;8.47;4.33;;;5.20;99.90;;;;;;5016822;28;20476;-62
2024/02/08 14:26:33;;;;;;;4.43;2.93;;;5.20;99.90;;;;;;5017637;28;20992;-62
2024/02/08 14:29:04;;;;;;;4.00;2.70;;;5.10;99.90;;;;;;5009787;28;20479;-62
2024/02/08 14:31:35;;;;;;;5.90;2.63;;;5.10;99.90;;;;;;5013631;28;21094;-62
2024/02/08 14:34:08;;;;;;;7.27;3.10;;;5.10;99.90;;;;;;5014132;28;20481;-63
2024/02/08 14:36:41;;;;;;;4.23;2.97;;;5.10;99.90;;;;;;5011722;28;20892;-63
2024/02/08 14:39:26;;;;;;;7.50;2.83;;;5.10;99.90;;;;;;5014199;28;20480;-62
2024/02/08 14:41:56;;;;;;;5.30;2.83;;;5.10;99.90;;;;;;5012669;28;20506;-62
2024/02/08 14:44:31;;;;;;;2.93;2.43;;;5.10;99.90;;;;;;5017968;28;20558;-62
2024/02/08 14:47:00;;;;;;;5.50;2.70;;;5.10;99.90;;;;;;5007363;28;20901;-63
2024/02/08 14:49:29;;;;;;;7.50;2.17;;;5.10;99.90;;;;;;5007034;28;20483;-69
2024/02/08 14:52:01;;;;;;;4.73;2.00;;;5.10;99.90;;;;;;5010352;28;20483;-69
2024/02/08 14:54:32;;;;;;;4.90;1.97;;;5.00;99.90;;;;;;5011148;28;20478;-65
2024/02/08 14:57:09;;;;;;;6.10;2.20;;;5.00;99.90;;;;;;5011195;28;20491;-63
2024/02/08 14:59:49;;;;;;;3.87;2.43;;;5.00;99.90;;;;;;5014373;28;20475;-67
2024/02/08 15:02:18;;;;;;;4.93;2.60;;;5.00;99.90;;;;;;5014586;28;20492;-68
2024/02/08 15:04:52;;;;;;;5.53;3.20;;;5.00;99.90;;;;;;5013994;28;20468;-63
2024/02/08 15:10:07;;;;;;;8.30;3.43;;;5.00;99.90;;;;;;5012412;28;20513;-63